Time;durP1;ratioP1;P1;durP2;ratioP2;P2;SDS_P1;SDS_P2;PMS_P1;PMS_P2;Temp;Humidity;BMP_temperature;BMP_pressure;BME280_temperature;BME280_humidity;BME280_pressure;Samples;Min_cycle;Max_cycle;Signal;HPM_P1;HPM_P2
2022/01/19 00:01:09;;;;;;;9.73;2.17;;;3.70;99.90;;;;;;4973305;28;20141;-71
2022/01/19 00:03:36;;;;;;;10.07;2.20;;;3.70;99.90;;;;;;4978198;28;20139;-70
2022/01/19 00:06:04;;;;;;;3.25;2.15;;;3.70;99.90;;;;;;4977592;28;20128;-68
2022/01/19 00:08:31;;;;;;;8.48;1.60;;;3.70;99.90;;;;;;4977803;28;20078;-70
2022/01/19 00:10:58;;;;;;;7.00;1.83;;;3.70;99.90;;;;;;4977120;28;20050;-68
2022/01/19 00:13:25;;;;;;;10.48;2.45;;;3.70;99.90;;;;;;4976398;28;20611;-68
2022/01/19 00:15:53;;;;;;;6.13;1.60;;;3.70;99.90;;;;;;4976938;28;20066;-66
2022/01/19 00:18:23;;;;;;;7.00;1.58;;;3.70;99.90;;;;;;4978641;28;20145;-68
2022/01/19 00:20:51;;;;;;;8.48;2.20;;;3.80;99.90;;;;;;4976777;28;20058;-67
2022/01/19 00:23:19;;;;;;;8.23;1.90;;;3.80;99.90;;;;;;4976244;28;20152;-66
2022/01/19 00:25:47;;;;;;;12.73;2.47;;;3.70;99.90;;;;;;4977453;28;20419;-65
2022/01/19 00:28:15;;;;;;;11.23;3.53;;;3.70;99.90;;;;;;4978487;28;20524;-68
2022/01/19 00:30:42;;;;;;;5.50;1.90;;;3.70;99.90;;;;;;4980645;28;20050;-67
2022/01/19 00:33:09;;;;;;;8.35;1.50;;;3.70;99.90;;;;;;4976460;28;20140;-67
2022/01/19 00:35:37;;;;;;;3.25;1.48;;;3.60;99.90;;;;;;4978105;28;20120;-70
2022/01/19 00:38:07;;;;;;;4.95;1.75;;;3.60;99.90;;;;;;4958396;28;20119;-72
2022/01/19 00:40:36;;;;;;;6.70;2.20;;;3.60;99.90;;;;;;4983373;28;20050;-71
2022/01/19 00:43:03;;;;;;;6.90;1.40;;;3.60;99.90;;;;;;4949591;28;20144;-65
2022/01/19 00:45:30;;;;;;;12.70;2.17;;;3.60;99.90;;;;;;4910295;28;22173;-65
2022/01/19 00:48:13;;;;;;;5.82;1.55;;;3.60;99.90;;;;;;1003535;28;10002029;-66
2022/01/19 00:50:40;;;;;;;3.83;1.67;;;3.60;99.90;;;;;;4982141;28;20054;-66
2022/01/19 00:53:07;;;;;;;4.57;1.98;;;3.60;99.90;;;;;;4974599;28;20135;-67
2022/01/19 00:55:34;;;;;;;5.88;2.03;;;3.70;99.90;;;;;;4986217;28;20136;-67
2022/01/19 00:58:01;;;;;;;8.20;2.25;;;3.60;99.90;;;;;;4979791;28;20049;-68
2022/01/19 01:00:28;;;;;;;6.55;2.13;;;3.60;99.90;;;;;;4967306;28;20168;-65
2022/01/19 01:02:56;;;;;;;8.18;2.10;;;3.60;99.90;;;;;;4980134;28;20136;-68
2022/01/19 01:05:24;;;;;;;7.03;2.47;;;3.60;99.90;;;;;;4970007;28;20053;-69
2022/01/19 01:07:51;;;;;;;3.72;1.80;;;3.70;99.90;;;;;;4981178;28;20525;-68
2022/01/19 01:10:20;;;;;;;7.60;2.30;;;3.60;99.90;;;;;;4979762;28;20082;-67
2022/01/19 01:12:51;;;;;;;2.42;1.50;;;3.60;99.90;;;;;;4982160;28;20101;-67
2022/01/19 01:15:28;;;;;;;;;;;3.60;99.90;;;;;;4903118;28;20997;-66
2022/01/19 01:20:36;;;;;;;5.28;2.15;;;3.60;99.90;;;;;;4964100;28;20543;-70
2022/01/19 01:23:05;;;;;;;9.52;3.17;;;3.60;99.90;;;;;;5000811;28;20050;-68
2022/01/19 01:25:32;;;;;;;5.88;3.42;;;3.60;99.90;;;;;;4999575;28;20057;-67
2022/01/19 01:27:59;;;;;;;8.00;2.70;;;3.60;99.90;;;;;;4971863;28;20050;-65
2022/01/19 01:30:27;;;;;;;9.80;2.13;;;3.60;99.90;;;;;;4983395;28;20055;-66
2022/01/19 01:32:54;;;;;;;8.88;1.95;;;3.60;99.90;;;;;;4999494;28;20471;-66
2022/01/19 01:35:21;;;;;;;6.65;2.38;;;3.60;99.90;;;;;;4980945;28;20205;-65
2022/01/19 01:37:48;;;;;;;11.75;2.95;;;3.50;99.90;;;;;;4999752;28;20150;-65
2022/01/19 01:40:15;;;;;;;9.05;3.03;;;3.50;99.90;;;;;;4982943;28;20312;-65
2022/01/19 01:42:46;;;;;;;7.82;1.98;;;3.50;99.90;;;;;;4983387;28;20046;-67
2022/01/19 01:45:17;;;;;;;10.73;2.13;;;3.40;99.90;;;;;;4996119;28;20057;-70
2022/01/19 01:47:50;;;;;;;13.25;2.13;;;3.40;99.90;;;;;;4985090;28;20051;-67
2022/01/19 01:55:48;;;;;;;10.95;2.25;;;3.40;99.90;;;;;;4981559;28;20111;-70
2022/01/19 01:58:15;;;;;;;7.53;2.30;;;3.40;99.90;;;;;;4977930;28;20046;-66
2022/01/19 02:00:53;;;;;;;6.53;1.77;;;3.40;99.90;;;;;;4978886;28;20142;-65
2022/01/19 02:03:20;;;;;;;12.63;2.78;;;3.40;99.90;;;;;;4976794;28;20061;-71
2022/01/19 02:08:48;;;;;;;10.77;2.10;;;3.30;99.90;;;;;;4974448;28;20050;-67
2022/01/19 02:21:36;;;;;;;14.00;2.50;;;3.30;99.90;;;;;;4960834;28;20055;-68
2022/01/19 02:22:20;;;;;;;13.88;3.90;;;3.20;99.90;;;;;;4977797;28;20050;-70
2022/01/19 02:24:49;;;;;;;9.98;2.67;;;3.20;99.90;;;;;;4960718;28;20491;-65
2022/01/19 02:40:52;;;;;;;8.02;2.25;;;3.10;99.90;;;;;;4962434;28;20046;-68
2022/01/19 02:43:24;;;;;;;5.93;2.20;;;3.10;99.90;;;;;;4961559;28;20117;-66
2022/01/19 02:51:23;;;;;;;9.90;2.08;;;3.10;99.90;;;;;;4962714;28;20047;-67
2022/01/19 02:53:50;;;;;;;9.93;2.63;;;3.10;99.90;;;;;;4963052;28;20794;-64
2022/01/19 02:56:31;;;;;;;12.27;2.72;;;3.10;99.90;;;;;;4955138;28;20090;-66
2022/01/19 02:59:11;;;;;;;4.07;2.00;;;3.10;99.90;;;;;;4978392;28;20073;-70
2022/01/19 03:09:45;;;;;;;10.45;4.32;;;3.00;99.90;;;;;;4981179;28;21560;-66
2022/01/19 03:12:13;;;;;;;13.65;2.85;;;3.00;99.90;;;;;;4981243;28;20430;-73
2022/01/19 03:14:40;;;;;;;10.73;3.15;;;3.00;99.90;;;;;;4979450;28;20149;-66
2022/01/19 03:17:10;;;;;;;7.40;2.42;;;3.00;99.90;;;;;;4978680;28;20133;-68
2022/01/19 03:19:38;;;;;;;7.63;2.75;;;3.00;99.90;;;;;;4981718;28;20062;-67
2022/01/19 03:22:05;;;;;;;10.15;4.88;;;3.00;99.90;;;;;;4979558;28;20074;-71
2022/01/19 03:24:38;;;;;;;16.65;5.20;;;3.00;99.90;;;;;;4979763;28;20053;-69
2022/01/19 03:27:05;;;;;;;8.57;2.78;;;3.00;99.90;;;;;;4957805;28;20058;-70
2022/01/19 03:29:53;;;;;;;10.20;2.78;;;3.00;99.90;;;;;;4978330;28;20073;-67
2022/01/19 03:32:20;;;;;;;9.45;3.55;;;3.00;99.90;;;;;;4978928;28;20043;-69
2022/01/19 03:34:47;;;;;;;7.18;2.85;;;3.00;99.90;;;;;;4977880;28;20055;-65
2022/01/19 03:37:14;;;;;;;14.02;3.67;;;3.00;99.90;;;;;;4973679;28;21751;-67
2022/01/19 03:39:41;;;;;;;9.82;3.28;;;3.00;99.90;;;;;;4979613;28;20056;-67
2022/01/19 03:42:08;;;;;;;11.30;4.93;;;3.00;99.90;;;;;;4980651;28;20054;-66
2022/01/19 03:44:35;;;;;;;8.38;3.08;;;3.00;99.90;;;;;;4982917;28;20150;-67
2022/01/19 03:47:04;;;;;;;9.43;3.08;;;3.10;99.90;;;;;;4979368;28;20228;-68
2022/01/19 03:49:33;;;;;;;11.20;3.28;;;3.10;99.90;;;;;;4979202;28;21534;-64
2022/01/19 03:52:04;;;;;;;15.55;3.45;;;3.10;99.90;;;;;;4979515;28;20058;-70
2022/01/19 03:54:39;;;;;;;9.02;3.28;;;3.10;99.90;;;;;;4979484;28;20042;-66
2022/01/19 03:57:07;;;;;;;9.85;4.07;;;3.10;99.90;;;;;;4974496;28;20058;-67
2022/01/19 03:59:36;;;;;;;7.72;3.20;;;3.10;99.90;;;;;;4978635;28;21523;-68
2022/01/19 04:02:05;;;;;;;9.05;3.30;;;3.20;99.90;;;;;;4973773;28;20061;-69
2022/01/19 04:04:40;;;;;;;8.07;2.55;;;3.20;99.90;;;;;;4990315;28;20326;-67
2022/01/19 04:07:27;;;;;;;8.82;3.33;;;3.30;99.90;;;;;;4974536;28;20054;-64
2022/01/19 04:09:54;;;;;;;6.75;3.53;;;3.40;99.90;;;;;;4974791;28;20050;-65
2022/01/19 04:12:41;;;;;;;5.85;2.83;;;3.50;99.90;;;;;;4980014;28;20436;-70
2022/01/19 04:15:11;;;;;;;6.88;2.28;;;3.60;99.90;;;;;;4968286;28;20105;-67
2022/01/19 04:17:43;;;;;;;11.82;2.50;;;3.70;99.90;;;;;;4969989;28;20050;-65
2022/01/19 04:20:11;;;;;;;10.55;2.63;;;3.70;99.90;;;;;;4977517;28;20050;-67
2022/01/19 04:22:38;;;;;;;7.00;2.17;;;3.70;99.90;;;;;;4978555;28;20657;-67
2022/01/19 04:25:07;;;;;;;9.70;3.95;;;3.70;99.90;;;;;;4986263;28;20063;-71
2022/01/19 04:27:34;;;;;;;8.27;2.63;;;3.60;99.90;;;;;;4988571;28;20061;-66
2022/01/19 04:30:10;;;;;;;6.32;3.53;;;3.50;99.90;;;;;;4986107;28;20102;-66
2022/01/19 04:35:30;;;;;;;12.30;2.92;;;3.50;99.90;;;;;;4976968;28;20565;-66
2022/01/19 04:49:10;;;;;;;5.95;1.90;;;3.70;99.90;;;;;;4966016;28;20058;-67
2022/01/19 05:03:34;;;;;;;7.53;2.28;;;4.20;99.90;;;;;;4971268;28;20054;-65
2022/01/19 05:06:09;;;;;;;2.38;1.45;;;4.30;99.90;;;;;;4974168;28;20078;-67
2022/01/19 05:08:49;;;;;;;4.15;1.83;;;4.40;99.90;;;;;;4951142;28;20050;-67
2022/01/19 05:14:03;;;;;;;5.20;1.55;;;4.60;99.90;;;;;;4978267;28;20058;-68
2022/01/19 05:16:30;;;;;;;11.65;2.42;;;4.50;99.90;;;;;;4977431;28;20050;-68
2022/01/19 05:18:58;;;;;;;10.85;2.20;;;4.50;99.90;;;;;;4975098;28;20069;-68
2022/01/19 05:21:25;;;;;;;8.23;2.00;;;4.40;99.90;;;;;;4975018;28;20050;-69
2022/01/19 05:24:10;;;;;;;8.13;2.20;;;4.30;99.90;;;;;;4971021;28;20678;-70
2022/01/19 05:26:41;;;;;;;7.35;2.38;;;4.30;99.90;;;;;;4976168;28;20050;-69
2022/01/19 05:29:14;;;;;;;6.40;2.03;;;4.20;99.90;;;;;;4979205;28;20160;-64
2022/01/19 05:31:41;;;;;;;10.85;2.40;;;4.20;99.90;;;;;;4977178;28;20055;-70
2022/01/19 05:34:08;;;;;;;7.07;2.28;;;4.20;99.90;;;;;;4982635;28;20051;-71
2022/01/19 05:36:40;;;;;;;6.20;2.03;;;4.20;99.90;;;;;;4969300;28;21131;-70
2022/01/19 05:39:30;;;;;;;8.02;1.67;;;4.30;99.90;;;;;;4993482;28;20163;-67
2022/01/19 05:42:15;;;;;;;6.50;1.63;;;4.40;99.90;;;;;;4974486;28;20057;-64
2022/01/19 05:44:45;;;;;;;3.85;1.67;;;4.50;99.90;;;;;;4977130;28;20641;-72
2022/01/19 05:47:17;;;;;;;6.45;3.22;;;4.60;99.90;;;;;;4978564;28;21118;-64
2022/01/19 05:49:44;;;;;;;8.80;2.17;;;4.60;99.90;;;;;;4978232;28;20141;-68
2022/01/19 05:52:14;;;;;;;8.85;2.47;;;4.70;99.90;;;;;;4981442;28;20136;-67
2022/01/19 05:54:41;;;;;;;9.23;2.80;;;4.70;99.90;;;;;;4980947;28;20050;-69
2022/01/19 05:57:10;;;;;;;9.10;2.40;;;4.70;99.90;;;;;;4990264;28;20065;-67
2022/01/19 05:59:44;;;;;;;8.88;2.60;;;4.80;99.90;;;;;;4976531;28;20130;-65
2022/01/19 06:02:11;;;;;;;3.45;1.20;;;4.80;99.90;;;;;;4974977;28;20054;-66
2022/01/19 06:04:39;;;;;;;12.85;2.83;;;4.80;99.90;;;;;;4978403;28;20048;-69
2022/01/19 06:07:11;;;;;;;14.63;2.83;;;4.70;99.90;;;;;;4967586;28;20235;-64
2022/01/19 06:12:11;;;;;;;6.15;2.22;;;4.70;99.90;;;;;;4989041;28;20062;-71
2022/01/19 06:14:40;;;;;;;14.57;3.30;;;4.70;99.90;;;;;;4974657;28;20053;-67
2022/01/19 06:17:10;;;;;;;8.03;2.33;;;4.70;99.90;;;;;;4987391;28;20444;-67
2022/01/19 06:19:38;;;;;;;12.97;1.83;;;4.70;99.90;;;;;;4979772;28;20811;-68
2022/01/19 06:22:07;;;;;;;10.23;2.53;;;4.70;99.90;;;;;;4976482;28;20295;-67
2022/01/19 06:24:34;;;;;;;6.53;1.88;;;4.70;99.90;;;;;;4977522;28;20060;-64
2022/01/19 06:27:01;;;;;;;4.72;2.30;;;4.70;99.90;;;;;;4974418;28;20062;-67
2022/01/19 06:29:28;;;;;;;7.80;1.98;;;4.70;99.90;;;;;;4973266;28;20157;-67
2022/01/19 06:31:56;;;;;;;7.30;2.95;;;4.70;99.90;;;;;;4965460;28;20762;-70
2022/01/19 06:34:23;;;;;;;9.75;1.85;;;4.70;99.90;;;;;;4969687;28;20051;-67
2022/01/19 06:37:13;;;;;;;7.97;1.90;;;4.70;99.90;;;;;;4962257;28;20046;-66
2022/01/19 06:39:48;;;;;;;8.48;2.05;;;4.60;99.90;;;;;;4987945;28;20157;-68
2022/01/19 06:42:15;;;;;;;5.68;1.50;;;4.70;99.90;;;;;;4974286;28;20054;-64
2022/01/19 06:44:43;;;;;;;7.10;2.03;;;4.70;99.90;;;;;;4974948;28;20141;-67
2022/01/19 06:47:24;;;;;;;11.10;2.20;;;4.70;99.90;;;;;;2079830;28;10024444;-65
2022/01/19 06:50:11;;;;;;;5.75;2.85;;;4.70;99.90;;;;;;4287880;28;10001584;-66
2022/01/19 06:52:41;;;;;;;8.60;2.55;;;4.70;99.90;;;;;;4975523;28;20136;-72
2022/01/19 06:55:08;;;;;;;5.60;2.20;;;4.70;99.90;;;;;;4959261;28;20911;-70
2022/01/19 06:57:35;;;;;;;7.88;3.08;;;4.70;99.90;;;;;;4974342;28;20055;-66
2022/01/19 07:00:25;;;;;;;7.15;2.35;;;4.70;99.90;;;;;;4948369;28;20046;-68
2022/01/19 07:03:03;;;;;;;14.05;3.15;;;4.70;99.90;;;;;;4980769;28;20081;-69
2022/01/19 07:05:43;;;;;;;4.40;2.13;;;4.80;99.90;;;;;;4975870;28;20052;-68
2022/01/19 07:08:39;;;;;;;4.95;1.88;;;4.80;99.90;;;;;;4968148;28;20512;-71
2022/01/19 07:11:07;;;;;;;4.75;2.45;;;4.90;99.90;;;;;;4979151;28;20547;-71
2022/01/19 07:13:34;;;;;;;10.70;3.47;;;4.90;99.90;;;;;;4982479;28;20088;-67
2022/01/19 07:16:01;;;;;;;6.97;2.65;;;4.90;99.90;;;;;;4982029;28;20058;-68
2022/01/19 07:18:28;;;;;;;7.82;2.08;;;4.90;99.90;;;;;;4979965;28;20074;-65
2022/01/19 07:20:57;;;;;;;9.32;2.50;;;4.90;99.90;;;;;;4980696;28;20054;-69
2022/01/19 07:23:39;;;;;;;5.15;1.70;;;5.00;99.90;;;;;;4976555;28;20072;-67
2022/01/19 07:26:07;;;;;;;6.55;2.50;;;5.00;99.90;;;;;;4981663;28;20070;-66
2022/01/19 07:28:34;;;;;;;6.30;3.13;;;5.00;99.90;;;;;;4962629;28;20057;-69
2022/01/19 07:31:01;;;;;;;11.45;4.18;;;5.10;99.90;;;;;;4981283;28;20042;-67
2022/01/19 07:33:32;;;;;;;2.00;1.33;;;5.10;99.90;;;;;;4978822;28;20503;-69
2022/01/19 07:35:59;;;;;;;4.60;2.15;;;5.10;99.90;;;;;;4980284;28;20149;-66
2022/01/19 07:38:26;;;;;;;7.78;2.72;;;5.10;99.90;;;;;;4978282;28;20384;-68
2022/01/19 07:40:54;;;;;;;7.40;2.20;;;5.20;99.90;;;;;;4978623;28;20066;-66
2022/01/19 07:43:22;;;;;;;13.00;3.42;;;5.20;99.90;;;;;;4976384;28;20050;-67
2022/01/19 07:46:09;;;;;;;7.63;2.03;;;5.20;99.90;;;;;;4978992;28;20074;-68
2022/01/19 07:48:49;;;;;;;10.63;3.45;;;5.20;99.90;;;;;;4979542;28;21390;-67
2022/01/19 07:51:31;;;;;;;8.10;2.03;;;5.20;99.90;;;;;;4974702;28;20064;-69
2022/01/19 07:54:18;;;;;;;5.75;1.90;;;5.20;99.90;;;;;;4979550;28;20176;-69
2022/01/19 07:56:57;;;;;;;7.50;4.10;;;5.20;99.90;;;;;;4975800;28;20066;-69
2022/01/19 07:59:39;;;;;;;4.45;1.45;;;5.20;99.90;;;;;;4961042;28;20079;-65
2022/01/19 08:02:07;;;;;;;7.53;2.42;;;5.30;99.90;;;;;;4963571;28;20058;-68
2022/01/19 08:04:58;;;;;;;9.82;4.35;;;5.30;99.90;;;;;;4960034;28;20103;-68
2022/01/19 08:07:28;;;;;;;6.50;3.00;;;5.20;99.90;;;;;;4961225;28;20158;-68
2022/01/19 08:09:55;;;;;;;9.68;3.40;;;5.20;99.90;;;;;;4956446;28;20583;-65
2022/01/19 08:12:22;;;;;;;8.52;2.83;;;5.20;99.90;;;;;;4961854;28;20062;-67
2022/01/19 08:14:50;;;;;;;7.40;3.08;;;5.20;99.90;;;;;;4505884;28;10001009;-66
2022/01/19 08:17:26;;;;;;;6.90;2.88;;;5.20;99.90;;;;;;2046548;28;10002007;-67
2022/01/19 08:19:55;;;;;;;7.22;2.50;;;5.20;99.90;;;;;;4962363;28;20057;-64
2022/01/19 08:22:23;;;;;;;4.13;1.90;;;5.20;99.90;;;;;;4960953;28;20047;-70
2022/01/19 08:25:13;;;;;;;4.90;1.83;;;5.20;99.90;;;;;;4960986;28;20099;-68
2022/01/19 08:27:40;;;;;;;8.52;2.35;;;5.20;99.90;;;;;;4962301;28;20050;-70
2022/01/19 08:30:10;;;;;;;4.00;2.20;;;5.20;99.90;;;;;;4962168;28;20116;-73
2022/01/19 08:32:38;;;;;;;5.72;2.90;;;5.20;99.90;;;;;;4962805;28;20420;-69
2022/01/19 08:35:24;;;;;;;7.22;2.72;;;5.10;99.90;;;;;;4959308;28;20058;-70
2022/01/19 08:38:10;;;;;;;8.63;2.22;;;5.10;99.90;;;;;;4959071;28;20227;-70
2022/01/19 08:40:50;;;;;;;6.63;1.60;;;5.10;99.90;;;;;;4957889;28;20051;-65
2022/01/19 08:43:21;;;;;;;11.05;3.22;;;5.00;99.90;;;;;;4960716;28;20303;-68
2022/01/19 08:45:48;;;;;;;10.98;2.60;;;5.00;99.90;;;;;;4962828;28;20049;-68
2022/01/19 08:48:19;;;;;;;7.95;3.00;;;4.90;99.90;;;;;;4949185;28;20049;-69
2022/01/19 08:51:07;;;;;;;6.78;2.38;;;4.90;99.90;;;;;;4959117;28;20057;-67
2022/01/19 08:53:52;;;;;;;8.13;2.78;;;4.90;99.90;;;;;;4956784;28;20057;-64
2022/01/19 08:56:32;;;;;;;;;;;4.90;99.90;;;;;;4961322;28;20074;-68
2022/01/19 08:58:59;;;;;;;7.63;2.58;;;4.90;99.90;;;;;;4976766;28;19926;-68
2022/01/19 09:01:27;;;;;;;4.65;1.92;;;4.90;99.90;;;;;;4898750;28;21716;-65
2022/01/19 09:03:54;;;;;;;10.40;3.30;;;4.90;99.90;;;;;;971430;28;10022941;-69
2022/01/19 09:06:37;;;;;;;6.65;1.92;;;4.90;99.90;;;;;;4011026;28;10001982;-67
2022/01/19 09:09:04;;;;;;;9.18;2.20;;;4.90;99.90;;;;;;2394234;28;10002101;-67
2022/01/19 09:11:31;;;;;;;6.88;2.03;;;4.90;99.90;;;;;;4971639;28;20061;-68
2022/01/19 09:14:00;;;;;;;4.53;2.10;;;5.00;99.90;;;;;;4979295;28;20058;-67
2022/01/19 09:16:27;;;;;;;8.85;2.78;;;5.00;99.90;;;;;;4976811;28;20058;-67
2022/01/19 09:19:00;;;;;;;12.90;2.83;;;5.00;99.90;;;;;;4976617;28;20058;-68
2022/01/19 09:21:26;;;;;;;11.40;3.17;;;5.00;99.90;;;;;;4975585;28;20139;-65
2022/01/19 09:23:53;;;;;;;11.93;2.78;;;5.00;99.90;;;;;;4977568;28;20210;-64
2022/01/19 09:26:20;;;;;;;7.32;2.28;;;5.00;99.90;;;;;;4978472;28;20096;-66
2022/01/19 09:28:47;;;;;;;11.45;3.03;;;5.00;99.90;;;;;;4977117;28;20735;-65
2022/01/19 09:31:33;;;;;;;8.23;2.88;;;5.00;99.90;;;;;;4973106;28;20054;-67
2022/01/19 09:34:20;;;;;;;9.98;2.50;;;5.00;99.90;;;;;;4977498;28;20046;-70
2022/01/19 09:36:48;;;;;;;5.10;2.42;;;5.00;99.90;;;;;;4977967;28;20373;-67
2022/01/19 09:39:20;;;;;;;5.20;2.22;;;5.00;99.90;;;;;;4955315;28;20061;-68
2022/01/19 09:41:48;;;;;;;6.90;2.17;;;5.10;99.90;;;;;;4977301;28;20056;-65
2022/01/19 09:44:17;;;;;;;5.38;2.58;;;5.10;99.90;;;;;;4974556;28;20061;-68
2022/01/19 09:46:45;;;;;;;3.78;2.85;;;5.10;99.90;;;;;;4974180;28;20050;-68
2022/01/19 09:49:15;;;;;;;7.38;2.72;;;5.00;99.90;;;;;;4976901;28;20145;-68
2022/01/19 09:51:47;;;;;;;17.70;3.42;;;5.00;99.90;;;;;;4978096;28;20062;-70
2022/01/19 09:54:25;;;;;;;5.47;2.78;;;5.00;99.90;;;;;;4976781;28;20054;-68
2022/01/19 09:56:53;;;;;;;8.27;2.58;;;4.90;99.90;;;;;;4970331;28;20692;-69
2022/01/19 09:59:21;;;;;;;6.05;3.20;;;4.90;99.90;;;;;;4952276;28;20141;-70
2022/01/19 10:01:53;;;;;;;9.48;3.42;;;4.90;99.90;;;;;;4955968;28;20078;-71
2022/01/19 10:04:29;;;;;;;5.07;2.13;;;4.90;99.90;;;;;;4955236;28;20452;-71
2022/01/19 10:07:29;;;;;;;16.77;4.13;;;4.80;99.90;;;;;;4957239;28;20078;-64
2022/01/19 10:10:01;;;;;;;8.02;5.57;;;4.80;99.90;;;;;;4915589;28;20350;-67
2022/01/19 10:18:23;;;;;;;13.77;3.97;;;4.70;99.90;;;;;;4954456;28;20618;-68
2022/01/19 10:21:08;;;;;;;11.45;3.85;;;4.70;99.90;;;;;;4955775;28;20051;-67
2022/01/19 10:23:46;;;;;;;5.25;3.50;;;4.70;99.90;;;;;;4952796;28;20124;-74
2022/01/19 10:26:24;;;;;;;7.90;2.63;;;4.70;99.90;;;;;;4955063;28;20081;-67
2022/01/19 10:29:08;;;;;;;8.20;2.63;;;4.70;99.90;;;;;;4955313;28;20099;-68
2022/01/19 10:31:38;;;;;;;6.50;3.22;;;4.60;99.90;;;;;;4953818;28;20098;-68
2022/01/19 10:34:19;;;;;;;10.05;3.05;;;4.60;99.90;;;;;;4954455;28;21016;-68
2022/01/19 10:36:52;;;;;;;9.15;3.53;;;4.60;99.90;;;;;;4956333;28;21606;-67
2022/01/19 10:39:21;;;;;;;7.43;3.10;;;4.60;99.90;;;;;;4953879;28;20051;-70
2022/01/19 10:42:02;;;;;;;9.20;3.70;;;4.50;99.90;;;;;;4955549;28;20051;-69
2022/01/19 10:44:37;;;;;;;7.65;3.63;;;4.50;99.90;;;;;;4955921;28;20058;-69
2022/01/19 10:47:45;;;;;;;9.43;3.45;;;4.50;99.90;;;;;;4949405;28;20058;-67
2022/01/19 10:50:18;;;;;;;13.73;4.07;;;4.50;99.90;;;;;;4948564;28;20050;-72
2022/01/19 10:52:46;;;;;;;15.18;5.38;;;4.50;99.90;;;;;;4955747;28;20051;-67
2022/01/19 10:55:25;;;;;;;19.40;5.40;;;4.50;99.90;;;;;;4953235;28;20055;-74
2022/01/19 10:57:53;;;;;;;8.52;4.55;;;4.50;99.90;;;;;;4965430;28;20203;-66
2022/01/19 11:00:26;;;;;;;15.65;4.82;;;4.50;99.90;;;;;;4972518;28;21701;-64
2022/01/19 11:02:58;;;;;;;16.80;7.20;;;4.50;99.90;;;;;;4970795;28;20406;-69
2022/01/19 11:05:45;;;;;;;9.93;5.15;;;4.50;99.90;;;;;;4958625;28;20043;-70
2022/01/19 11:08:16;;;;;;;11.77;5.80;;;4.50;99.90;;;;;;4969005;28;20046;-68
2022/01/19 11:10:49;;;;;;;17.13;6.05;;;4.50;99.90;;;;;;4973765;28;20065;-70
2022/01/19 11:13:40;;;;;;;12.20;4.15;;;4.50;99.90;;;;;;4971588;28;20082;-63
2022/01/19 11:16:07;;;;;;;17.75;4.22;;;4.50;99.90;;;;;;4961338;28;20160;-68
2022/01/19 11:18:38;;;;;;;10.57;3.83;;;4.60;99.90;;;;;;4973747;28;20050;-67
2022/01/19 11:21:08;;;;;;;11.77;4.05;;;4.50;99.90;;;;;;4968817;28;20078;-70
2022/01/19 11:23:56;;;;;;;16.30;3.63;;;4.60;99.90;;;;;;4976315;28;20069;-67
2022/01/19 11:26:29;;;;;;;9.63;3.67;;;4.60;99.90;;;;;;4970549;28;20061;-71
2022/01/19 11:29:20;;;;;;;8.32;3.17;;;4.60;99.90;;;;;;4973780;28;20050;-69
2022/01/19 11:31:49;;;;;;;13.05;4.10;;;4.60;99.90;;;;;;4971194;28;20501;-66
2022/01/19 11:34:39;;;;;;;9.02;3.80;;;4.60;99.90;;;;;;4973197;28;20112;-66
2022/01/19 11:37:06;;;;;;;10.63;4.93;;;4.70;99.90;;;;;;4969904;28;20103;-66
2022/01/19 11:39:33;;;;;;;14.60;4.88;;;4.70;99.90;;;;;;4969717;28;20141;-69
2022/01/19 11:42:03;;;;;;;11.88;4.70;;;4.70;99.90;;;;;;4964162;28;20116;-67
2022/01/19 11:44:33;;;;;;;16.63;5.10;;;4.70;99.90;;;;;;4974982;28;20109;-69
2022/01/19 11:47:13;;;;;;;8.02;4.10;;;4.70;99.90;;;;;;4973292;28;20472;-65
2022/01/19 11:50:08;;;;;;;9.48;4.60;;;4.60;99.90;;;;;;4968478;28;20160;-64
2022/01/19 11:52:38;;;;;;;9.98;5.13;;;4.60;99.90;;;;;;4961776;28;20500;-64
2022/01/19 11:55:16;;;;;;;10.55;4.95;;;4.60;99.90;;;;;;4971437;28;20081;-67
2022/01/19 11:57:46;;;;;;;19.92;4.93;;;4.60;99.90;;;;;;4971104;28;20134;-68
2022/01/19 12:00:21;;;;;;;13.30;5.38;;;4.60;99.90;;;;;;4970343;28;20161;-67
2022/01/19 12:02:53;;;;;;;14.30;6.32;;;4.60;99.90;;;;;;4970849;28;20568;-66
2022/01/19 12:05:41;;;;;;;12.10;4.35;;;4.60;99.90;;;;;;4960059;28;21397;-69
2022/01/19 12:08:36;;;;;;;11.10;5.90;;;4.60;99.90;;;;;;4966680;28;20062;-66
2022/01/19 12:11:32;;;;;;;15.40;5.50;;;4.60;99.90;;;;;;4966783;28;20046;-69
2022/01/19 12:14:16;;;;;;;9.90;4.97;;;4.50;99.90;;;;;;4959576;28;20150;-65
2022/01/19 12:17:01;;;;;;;14.13;4.47;;;4.50;99.90;;;;;;4966265;28;20058;-66
2022/01/19 12:19:35;;;;;;;13.73;5.75;;;4.50;99.90;;;;;;4974006;28;20091;-69
2022/01/19 12:22:21;;;;;;;16.15;6.25;;;4.50;99.90;;;;;;4956444;28;20097;-71
2022/01/19 12:24:58;;;;;;;15.00;6.70;;;4.50;99.90;;;;;;4961345;28;20127;-67
2022/01/19 12:27:31;;;;;;;13.77;5.40;;;4.40;99.90;;;;;;4961846;28;20050;-68
2022/01/19 12:30:17;;;;;;;24.85;6.22;;;4.50;99.90;;;;;;4971891;28;20109;-66
2022/01/19 12:32:47;;;;;;;15.23;5.28;;;4.40;99.90;;;;;;4967802;28;20093;-65
2022/01/19 12:35:17;;;;;;;15.70;6.32;;;4.40;99.90;;;;;;4971011;28;20046;-68
2022/01/19 12:37:46;;;;;;;20.52;7.43;;;4.40;99.90;;;;;;4967035;28;20065;-66
2022/01/19 12:40:12;;;;;;;13.38;5.75;;;4.40;99.90;;;;;;4973263;28;20073;-66
2022/01/19 12:42:55;;;;;;;15.50;6.03;;;4.40;99.90;;;;;;4975494;28;20106;-64
2022/01/19 12:45:35;;;;;;;12.32;6.25;;;4.40;99.90;;;;;;4963821;28;20118;-66
2022/01/19 12:48:03;;;;;;;;;;;4.40;99.90;;;;;;4978396;28;20126;-65
2022/01/19 12:50:46;;;;;;;16.45;6.00;;;4.40;99.90;;;;;;4908096;28;20236;-63
2022/01/19 12:53:26;;;;;;;11.65;5.40;;;4.40;99.90;;;;;;2056620;28;10025483;-63
2022/01/19 12:55:57;;;;;;;13.15;6.32;;;4.40;99.90;;;;;;4274666;28;10001271;-66
2022/01/19 12:58:39;;;;;;;10.18;5.28;;;4.40;99.90;;;;;;4973448;28;20057;-63
2022/01/19 13:01:09;;;;;;;10.73;6.78;;;4.40;99.90;;;;;;4961387;28;20055;-62
2022/01/19 13:03:42;;;;;;;12.10;7.00;;;4.40;99.90;;;;;;4972715;28;20117;-64
2022/01/19 13:06:13;;;;;;;17.83;5.63;;;4.40;99.90;;;;;;4973647;28;20424;-64
2022/01/19 13:08:46;;;;;;;16.73;7.18;;;4.40;99.90;;;;;;4974611;28;20400;-64
2022/01/19 13:11:24;;;;;;;12.68;5.63;;;4.40;99.90;;;;;;4966976;28;20050;-63
2022/01/19 13:14:01;;;;;;;12.38;6.68;;;4.40;99.90;;;;;;4971665;28;20133;-62
2022/01/19 13:16:35;;;;;;;16.42;6.20;;;4.40;99.90;;;;;;4970199;28;20043;-62
2022/01/19 13:19:10;;;;;;;12.60;6.78;;;4.40;99.90;;;;;;4964732;28;20050;-66
2022/01/19 13:21:38;;;;;;;15.85;6.35;;;4.40;99.90;;;;;;4963974;28;20146;-63
2022/01/19 13:24:16;;;;;;;16.67;5.38;;;4.40;99.90;;;;;;4972078;28;20173;-63
2022/01/19 13:26:46;;;;;;;11.50;6.60;;;4.40;99.90;;;;;;4928207;28;20051;-62
2022/01/19 13:29:39;;;;;;;7.32;5.97;;;4.40;99.90;;;;;;1923607;28;10023563;-63
2022/01/19 13:32:15;;;;;;;25.67;7.10;;;4.30;99.90;;;;;;4630470;28;10001339;-63
2022/01/19 13:34:53;;;;;;;19.98;5.88;;;4.30;99.90;;;;;;4970682;28;20062;-64
2022/01/19 13:37:29;;;;;;;14.90;6.88;;;4.30;99.90;;;;;;4970179;28;20066;-64
2022/01/19 13:40:04;;;;;;;14.95;7.82;;;4.30;99.90;;;;;;4968200;28;20055;-63
2022/01/19 13:42:34;;;;;;;11.63;6.55;;;4.20;99.90;;;;;;4973380;28;20444;-62
2022/01/19 13:45:09;;;;;;;8.50;6.18;;;4.20;99.90;;;;;;4963903;28;21034;-62
2022/01/19 13:51:04;;;;;;;24.27;7.60;;;4.20;99.90;;;;;;4967202;28;20047;-64
2022/01/19 13:53:39;;;;;;;17.80;8.20;;;4.20;99.90;;;;;;4965558;28;20058;-66
2022/01/19 13:56:14;;;;;;;13.25;7.30;;;4.20;99.90;;;;;;4972971;28;20113;-64
2022/01/19 13:59:08;;;;;;;19.33;8.07;;;4.20;99.90;;;;;;4951605;28;20657;-66
2022/01/19 14:01:40;;;;;;;15.70;7.47;;;4.20;99.90;;;;;;4961613;28;20050;-63
2022/01/19 14:04:12;;;;;;;22.27;7.70;;;4.20;99.90;;;;;;4963957;28;20113;-63
2022/01/19 14:06:50;;;;;;;17.90;7.63;;;4.20;99.90;;;;;;4941036;28;20089;-64
2022/01/19 14:09:31;;;;;;;15.33;7.83;;;4.20;99.90;;;;;;4276766;28;10001495;-64
2022/01/19 14:12:08;;;;;;;24.75;10.15;;;4.20;99.90;;;;;;3950834;28;10001612;-64
2022/01/19 14:14:39;;;;;;;17.13;8.43;;;4.20;99.90;;;;;;4966314;28;20054;-65
2022/01/19 14:17:08;;;;;;;;;;;4.20;99.90;;;;;;4970031;28;20188;-64
2022/01/19 14:19:47;;;;;;;16.60;8.38;;;4.20;99.90;;;;;;4971250;28;19940;-64
2022/01/19 14:22:25;;;;;;;28.02;12.20;;;4.20;99.90;;;;;;4976305;28;20149;-65
2022/01/19 14:24:55;;;;;;;27.25;9.48;;;4.20;99.90;;;;;;4971340;28;20050;-63
2022/01/19 14:27:48;;;;;;;16.35;10.05;;;4.20;99.90;;;;;;4975139;28;20134;-67
2022/01/19 14:30:15;;;;;;;15.23;9.15;;;4.20;99.90;;;;;;4972760;28;20058;-65
2022/01/19 14:32:49;;;;;;;19.02;7.72;;;4.20;99.90;;;;;;4967548;28;20066;-66
2022/01/19 14:35:35;;;;;;;19.35;8.02;;;4.20;99.90;;;;;;4968712;28;20058;-63
2022/01/19 14:38:05;;;;;;;17.00;7.70;;;4.20;99.90;;;;;;4971300;28;20054;-65
2022/01/19 14:40:37;;;;;;;14.43;7.07;;;4.20;99.90;;;;;;4963793;28;20163;-63
2022/01/19 14:43:12;;;;;;;24.67;9.40;;;4.20;99.90;;;;;;4963133;28;20057;-65
2022/01/19 14:45:56;;;;;;;17.42;9.35;;;4.20;99.90;;;;;;4962143;28;20397;-63
2022/01/19 14:48:26;;;;;;;19.35;8.15;;;4.20;99.90;;;;;;4972796;28;20644;-64
2022/01/19 14:50:55;;;;;;;13.25;7.10;;;4.20;99.90;;;;;;4970888;28;20050;-64